sensor_id;sensor_type;location;lat;lon;timestamp;pressure;altitude;pressure_sealevel;temperature;humidity
71165;BME280;58859;55.132;-1.586;2024-02-15T00:00:15;100286.25;;;14.15;100.00
71165;BME280;58859;55.132;-1.586;2024-02-15T00:02:42;100277.59;;;14.15;100.00
71165;BME280;58859;55.132;-1.586;2024-02-15T00:05:10;100289.53;;;14.32;100.00
71165;BME280;58859;55.132;-1.586;2024-02-15T00:07:35;100289.16;;;14.35;100.00
71165;BME280;58859;55.132;-1.586;2024-02-15T00:10:01;100285.19;;;14.24;100.00
71165;BME280;58859;55.132;-1.586;2024-02-15T00:12:29;100280.66;;;14.48;100.00
71165;BME280;58859;55.132;-1.586;2024-02-15T00:14:55;100276.66;;;14.66;100.00
71165;BME280;58859;55.132;-1.586;2024-02-15T00:17:24;100269.53;;;14.96;100.00
71165;BME280;58859;55.132;-1.586;2024-02-15T00:19:49;100276.44;;;14.47;100.00
71165;BME280;58859;55.132;-1.586;2024-02-15T00:22:15;100278.19;;;14.75;100.00
71165;BME280;58859;55.132;-1.586;2024-02-15T00:24:40;100274.69;;;14.54;100.00
71165;BME280;58859;55.132;-1.586;2024-02-15T00:27:08;100268.78;;;15.02;100.00
71165;BME280;58859;55.132;-1.586;2024-02-15T00:29:33;100272.63;;;14.49;100.00
71165;BME280;58859;55.132;-1.586;2024-02-15T00:32:00;100269.28;;;14.91;100.00
71165;BME280;58859;55.132;-1.586;2024-02-15T00:34:25;100269.06;;;14.71;100.00
71165;BME280;58859;55.132;-1.586;2024-02-15T00:36:52;100270.91;;;14.56;100.00
71165;BME280;58859;55.132;-1.586;2024-02-15T00:39:17;100270.69;;;14.72;100.00
71165;BME280;58859;55.132;-1.586;2024-02-15T00:41:43;100265.56;;;15.00;100.00
71165;BME280;58859;55.132;-1.586;2024-02-15T00:44:10;100266.25;;;15.09;100.00
71165;BME280;58859;55.132;-1.586;2024-02-15T00:46:37;100261.34;;;14.63;100.00
71165;BME280;58859;55.132;-1.586;2024-02-15T00:49:03;100254.88;;;14.80;100.00
71165;BME280;58859;55.132;-1.586;2024-02-15T00:51:32;100239.22;;;14.66;100.00
71165;BME280;58859;55.132;-1.586;2024-02-15T00:53:58;100235.09;;;14.42;100.00
71165;BME280;58859;55.132;-1.586;2024-02-15T00:56:24;100240.03;;;14.66;100.00
71165;BME280;58859;55.132;-1.586;2024-02-15T00:58:49;100232.66;;;14.26;100.00
71165;BME280;58859;55.132;-1.586;2024-02-15T01:01:15;100230.16;;;14.32;100.00
71165;BME280;58859;55.132;-1.586;2024-02-15T01:03:40;100225.06;;;14.60;100.00
71165;BME280;58859;55.132;-1.586;2024-02-15T01:06:06;100235.19;;;14.49;100.00
71165;BME280;58859;55.132;-1.586;2024-02-15T01:08:32;100226.53;;;14.48;100.00
71165;BME280;58859;55.132;-1.586;2024-02-15T01:10:58;100226.09;;;14.30;100.00
71165;BME280;58859;55.132;-1.586;2024-02-15T01:13:23;100220.41;;;14.26;100.00
71165;BME280;58859;55.132;-1.586;2024-02-15T01:15:49;100211.38;;;14.14;100.00
71165;BME280;58859;55.132;-1.586;2024-02-15T01:18:15;100209.69;;;13.92;100.00
71165;BME280;58859;55.132;-1.586;2024-02-15T01:20:40;100205.44;;;14.20;100.00
71165;BME280;58859;55.132;-1.586;2024-02-15T01:23:06;100202.19;;;14.18;100.00
71165;BME280;58859;55.132;-1.586;2024-02-15T01:25:33;100184.31;;;14.36;100.00
71165;BME280;58859;55.132;-1.586;2024-02-15T01:27:58;100200.81;;;14.22;100.00
71165;BME280;58859;55.132;-1.586;2024-02-15T01:30:23;100200.41;;;14.19;100.00
71165;BME280;58859;55.132;-1.586;2024-02-15T01:32:49;100196.78;;;14.05;100.00
71165;BME280;58859;55.132;-1.586;2024-02-15T01:35:15;100198.94;;;13.58;100.00
71165;BME280;58859;55.132;-1.586;2024-02-15T01:37:40;100190.72;;;14.19;100.00
71165;BME280;58859;55.132;-1.586;2024-02-15T01:40:06;100201.41;;;13.89;100.00
71165;BME280;58859;55.132;-1.586;2024-02-15T01:42:32;100190.66;;;14.13;100.00
71165;BME280;58859;55.132;-1.586;2024-02-15T01:44:57;100186.56;;;14.39;100.00
71165;BME280;58859;55.132;-1.586;2024-02-15T01:47:23;100185.25;;;14.14;100.00
71165;BME280;58859;55.132;-1.586;2024-02-15T01:49:50;100177.84;;;14.18;100.00
71165;BME280;58859;55.132;-1.586;2024-02-15T01:52:17;100168.13;;;14.48;100.00
71165;BME280;58859;55.132;-1.586;2024-02-15T01:54:44;100175.03;;;14.34;100.00
71165;BME280;58859;55.132;-1.586;2024-02-15T01:57:10;100166.00;;;14.22;100.00
71165;BME280;58859;55.132;-1.586;2024-02-15T01:59:36;100168.53;;;13.65;100.00
71165;BME280;58859;55.132;-1.586;2024-02-15T02:02:02;100165.25;;;14.07;100.00
71165;BME280;58859;55.132;-1.586;2024-02-15T02:04:29;100158.53;;;14.33;100.00
71165;BME280;58859;55.132;-1.586;2024-02-15T02:06:57;100166.16;;;14.50;100.00
71165;BME280;58859;55.132;-1.586;2024-02-15T02:09:23;100158.25;;;14.28;100.00
71165;BME280;58859;55.132;-1.586;2024-02-15T02:11:49;100160.88;;;14.64;100.00
71165;BME280;58859;55.132;-1.586;2024-02-15T02:14:16;100154.63;;;14.29;100.00
71165;BME280;58859;55.132;-1.586;2024-02-15T02:16:41;100143.00;;;14.47;100.00
71165;BME280;58859;55.132;-1.586;2024-02-15T02:19:07;100148.97;;;14.26;100.00
71165;BME280;58859;55.132;-1.586;2024-02-15T02:21:34;100143.59;;;14.49;100.00
71165;BME280;58859;55.132;-1.586;2024-02-15T02:24:03;100140.41;;;14.53;100.00
71165;BME280;58859;55.132;-1.586;2024-02-15T02:26:33;100134.31;;;14.46;100.00
71165;BME280;58859;55.132;-1.586;2024-02-15T02:29:00;100133.63;;;14.37;100.00
71165;BME280;58859;55.132;-1.586;2024-02-15T02:31:28;100133.38;;;14.32;100.00
71165;BME280;58859;55.132;-1.586;2024-02-15T02:33:54;100132.88;;;14.44;100.00
71165;BME280;58859;55.132;-1.586;2024-02-15T02:36:20;100125.44;;;14.11;100.00
71165;BME280;58859;55.132;-1.586;2024-02-15T02:38:46;100121.53;;;14.36;100.00
71165;BME280;58859;55.132;-1.586;2024-02-15T02:41:15;100118.66;;;14.17;100.00
71165;BME280;58859;55.132;-1.586;2024-02-15T02:43:41;100123.75;;;14.04;100.00
71165;BME280;58859;55.132;-1.586;2024-02-15T02:46:09;100120.44;;;14.31;100.00
71165;BME280;58859;55.132;-1.586;2024-02-15T02:48:36;100108.03;;;14.54;100.00
71165;BME280;58859;55.132;-1.586;2024-02-15T02:51:01;100103.06;;;14.23;100.00
71165;BME280;58859;55.132;-1.586;2024-02-15T02:53:27;100102.81;;;14.33;100.00
71165;BME280;58859;55.132;-1.586;2024-02-15T02:55:54;100098.88;;;14.44;100.00
71165;BME280;58859;55.132;-1.586;2024-02-15T02:58:21;100103.28;;;14.43;100.00
71165;BME280;58859;55.132;-1.586;2024-02-15T03:00:48;100103.78;;;14.53;100.00
71165;BME280;58859;55.132;-1.586;2024-02-15T03:03:13;100092.41;;;14.25;100.00
71165;BME280;58859;55.132;-1.586;2024-02-15T03:05:39;100095.59;;;14.20;100.00
71165;BME280;58859;55.132;-1.586;2024-02-15T03:08:05;100095.19;;;14.38;100.00
71165;BME280;58859;55.132;-1.586;2024-02-15T03:10:31;100092.84;;;14.64;100.00
71165;BME280;58859;55.132;-1.586;2024-02-15T03:12:56;100084.72;;;14.38;100.00
71165;BME280;58859;55.132;-1.586;2024-02-15T03:15:22;100087.63;;;14.71;100.00
71165;BME280;58859;55.132;-1.586;2024-02-15T03:17:48;100082.00;;;14.95;100.00
71165;BME280;58859;55.132;-1.586;2024-02-15T03:20:14;100068.63;;;14.83;100.00
71165;BME280;58859;55.132;-1.586;2024-02-15T03:22:55;100072.13;;;14.69;100.00
71165;BME280;58859;55.132;-1.586;2024-02-15T03:25:21;100073.31;;;14.24;100.00
71165;BME280;58859;55.132;-1.586;2024-02-15T03:27:50;100060.53;;;14.15;100.00
71165;BME280;58859;55.132;-1.586;2024-02-15T03:30:19;100076.69;;;14.39;100.00
71165;BME280;58859;55.132;-1.586;2024-02-15T03:32:48;100076.66;;;14.18;100.00
71165;BME280;58859;55.132;-1.586;2024-02-15T03:35:17;100066.09;;;14.69;100.00
71165;BME280;58859;55.132;-1.586;2024-02-15T03:37:42;100063.41;;;14.90;100.00
71165;BME280;58859;55.132;-1.586;2024-02-15T03:40:08;100059.81;;;14.91;100.00
71165;BME280;58859;55.132;-1.586;2024-02-15T03:42:38;100060.13;;;14.81;100.00
71165;BME280;58859;55.132;-1.586;2024-02-15T03:45:04;100055.66;;;15.03;100.00
71165;BME280;58859;55.132;-1.586;2024-02-15T03:47:35;100057.78;;;14.86;100.00
71165;BME280;58859;55.132;-1.586;2024-02-15T03:50:07;100048.50;;;14.63;100.00
71165;BME280;58859;55.132;-1.586;2024-02-15T03:52:35;100043.16;;;14.28;100.00
71165;BME280;58859;55.132;-1.586;2024-02-15T03:55:00;100032.69;;;14.28;100.00
71165;BME280;58859;55.132;-1.586;2024-02-15T03:57:27;100029.56;;;14.61;100.00
71165;BME280;58859;55.132;-1.586;2024-02-15T03:59:53;100030.69;;;14.30;100.00
71165;BME280;58859;55.132;-1.586;2024-02-15T04:02:20;100021.94;;;14.38;100.00
71165;BME280;58859;55.132;-1.586;2024-02-15T04:04:46;100021.19;;;15.00;100.00
71165;BME280;58859;55.132;-1.586;2024-02-15T04:07:17;100029.00;;;14.93;100.00
71165;BME280;58859;55.132;-1.586;2024-02-15T04:09:43;100023.72;;;14.86;100.00
71165;BME280;58859;55.132;-1.586;2024-02-15T04:12:08;100031.16;;;14.83;100.00
71165;BME280;58859;55.132;-1.586;2024-02-15T04:14:34;100022.25;;;14.77;100.00
71165;BME280;58859;55.132;-1.586;2024-02-15T04:17:00;100027.84;;;15.02;100.00
71165;BME280;58859;55.132;-1.586;2024-02-15T04:19:27;100017.25;;;14.82;100.00
71165;BME280;58859;55.132;-1.586;2024-02-15T04:21:53;100026.16;;;14.88;100.00
71165;BME280;58859;55.132;-1.586;2024-02-15T04:24:21;100024.19;;;14.69;100.00
71165;BME280;58859;55.132;-1.586;2024-02-15T04:26:47;100027.28;;;14.79;100.00
71165;BME280;58859;55.132;-1.586;2024-02-15T04:29:14;100018.78;;;15.05;100.00
71165;BME280;58859;55.132;-1.586;2024-02-15T04:31:40;100019.44;;;14.79;100.00
71165;BME280;58859;55.132;-1.586;2024-02-15T04:34:07;100020.97;;;15.29;100.00
71165;BME280;58859;55.132;-1.586;2024-02-15T04:36:34;100026.66;;;14.77;100.00
71165;BME280;58859;55.132;-1.586;2024-02-15T04:39:00;100017.25;;;14.82;100.00
71165;BME280;58859;55.132;-1.586;2024-02-15T04:41:29;100014.31;;;14.98;100.00
71165;BME280;58859;55.132;-1.586;2024-02-15T04:43:54;100013.06;;;14.88;100.00
71165;BME280;58859;55.132;-1.586;2024-02-15T04:46:20;100017.72;;;14.65;100.00
71165;BME280;58859;55.132;-1.586;2024-02-15T04:48:50;100013.56;;;15.05;100.00
71165;BME280;58859;55.132;-1.586;2024-02-15T04:51:16;100014.72;;;14.95;100.00
71165;BME280;58859;55.132;-1.586;2024-02-15T04:53:42;100013.66;;;14.90;100.00
71165;BME280;58859;55.132;-1.586;2024-02-15T04:56:08;100009.44;;;15.23;100.00
71165;BME280;58859;55.132;-1.586;2024-02-15T04:58:40;100016.53;;;14.67;100.00
71165;BME280;58859;55.132;-1.586;2024-02-15T05:01:16;100009.28;;;14.97;100.00
71165;BME280;58859;55.132;-1.586;2024-02-15T05:03:43;99998.16;;;14.88;100.00
71165;BME280;58859;55.132;-1.586;2024-02-15T05:06:09;100003.97;;;15.18;100.00
71165;BME280;58859;55.132;-1.586;2024-02-15T05:08:35;100006.66;;;14.97;100.00
71165;BME280;58859;55.132;-1.586;2024-02-15T05:11:03;99990.03;;;15.11;100.00
71165;BME280;58859;55.132;-1.586;2024-02-15T05:13:29;99989.63;;;15.14;100.00
71165;BME280;58859;55.132;-1.586;2024-02-15T05:15:55;99989.31;;;14.96;100.00
71165;BME280;58859;55.132;-1.586;2024-02-15T05:18:20;99989.25;;;14.83;100.00
71165;BME280;58859;55.132;-1.586;2024-02-15T05:20:46;99993.41;;;15.05;100.00
71165;BME280;58859;55.132;-1.586;2024-02-15T05:23:11;99982.00;;;15.19;100.00
71165;BME280;58859;55.132;-1.586;2024-02-15T05:25:37;99983.59;;;15.14;100.00
71165;BME280;58859;55.132;-1.586;2024-02-15T05:28:03;99979.50;;;15.05;100.00
71165;BME280;58859;55.132;-1.586;2024-02-15T05:30:31;99974.53;;;15.16;100.00
71165;BME280;58859;55.132;-1.586;2024-02-15T05:32:58;99981.72;;;15.01;100.00
71165;BME280;58859;55.132;-1.586;2024-02-15T05:35:23;99971.38;;;14.86;100.00
71165;BME280;58859;55.132;-1.586;2024-02-15T05:37:50;99969.00;;;14.98;100.00
71165;BME280;58859;55.132;-1.586;2024-02-15T05:40:18;99970.38;;;14.32;100.00
71165;BME280;58859;55.132;-1.586;2024-02-15T05:42:44;99982.53;;;13.82;100.00
71165;BME280;58859;55.132;-1.586;2024-02-15T05:47:48;99967.91;;;14.52;100.00
71165;BME280;58859;55.132;-1.586;2024-02-15T05:50:13;99975.91;;;14.44;100.00
71165;BME280;58859;55.132;-1.586;2024-02-15T05:52:40;99967.63;;;14.19;100.00
71165;BME280;58859;55.132;-1.586;2024-02-15T05:55:07;99954.41;;;14.06;100.00
71165;BME280;58859;55.132;-1.586;2024-02-15T05:57:33;99960.16;;;14.16;100.00
71165;BME280;58859;55.132;-1.586;2024-02-15T05:59:58;99947.03;;;14.58;100.00
71165;BME280;58859;55.132;-1.586;2024-02-15T06:02:27;99956.97;;;14.42;100.00
71165;BME280;58859;55.132;-1.586;2024-02-15T06:04:52;99952.63;;;14.55;100.00
71165;BME280;58859;55.132;-1.586;2024-02-15T06:07:19;99946.66;;;14.61;100.00
71165;BME280;58859;55.132;-1.586;2024-02-15T06:09:46;99951.09;;;14.39;100.00
71165;BME280;58859;55.132;-1.586;2024-02-15T06:12:11;99957.53;;;14.65;100.00
71165;BME280;58859;55.132;-1.586;2024-02-15T06:14:37;99948.00;;;14.57;100.00
71165;BME280;58859;55.132;-1.586;2024-02-15T06:17:02;99954.34;;;15.04;100.00
71165;BME280;58859;55.132;-1.586;2024-02-15T06:19:28;99953.66;;;14.88;100.00
71165;BME280;58859;55.132;-1.586;2024-02-15T06:21:53;99939.91;;;15.21;100.00
71165;BME280;58859;55.132;-1.586;2024-02-15T06:24:19;99941.94;;;15.25;100.00
71165;BME280;58859;55.132;-1.586;2024-02-15T06:26:44;99940.47;;;15.70;100.00
71165;BME280;58859;55.132;-1.586;2024-02-15T06:29:10;99942.97;;;15.31;100.00
71165;BME280;58859;55.132;-1.586;2024-02-15T06:31:55;99943.94;;;15.77;100.00
71165;BME280;58859;55.132;-1.586;2024-02-15T06:34:38;99937.53;;;15.39;100.00
71165;BME280;58859;55.132;-1.586;2024-02-15T06:37:37;99932.56;;;15.50;100.00
71165;BME280;58859;55.132;-1.586;2024-02-15T06:40:21;99933.00;;;15.54;100.00
71165;BME280;58859;55.132;-1.586;2024-02-15T06:42:48;99932.78;;;15.49;100.00
71165;BME280;58859;55.132;-1.586;2024-02-15T06:45:13;99923.56;;;15.19;100.00
71165;BME280;58859;55.132;-1.586;2024-02-15T06:47:42;99923.34;;;15.14;100.00
71165;BME280;58859;55.132;-1.586;2024-02-15T06:50:11;99921.44;;;15.42;100.00
71165;BME280;58859;55.132;-1.586;2024-02-15T06:52:37;99918.38;;;15.32;100.00
71165;BME280;58859;55.132;-1.586;2024-02-15T06:55:06;99919.97;;;15.26;100.00
71165;BME280;58859;55.132;-1.586;2024-02-15T06:57:33;99915.03;;;14.97;100.00
71165;BME280;58859;55.132;-1.586;2024-02-15T07:00:02;99914.81;;;15.52;100.00
71165;BME280;58859;55.132;-1.586;2024-02-15T07:02:28;99917.22;;;14.93;100.00
71165;BME280;58859;55.132;-1.586;2024-02-15T07:04:54;99919.91;;;15.07;100.00
71165;BME280;58859;55.132;-1.586;2024-02-15T07:07:19;99927.44;;;15.36;100.00
71165;BME280;58859;55.132;-1.586;2024-02-15T07:09:45;99932.22;;;15.19;100.00
71165;BME280;58859;55.132;-1.586;2024-02-15T07:12:10;99932.19;;;15.06;100.00
71165;BME280;58859;55.132;-1.586;2024-02-15T07:14:36;99946.19;;;14.85;100.00
71165;BME280;58859;55.132;-1.586;2024-02-15T07:17:02;99942.91;;;14.77;100.00
71165;BME280;58859;55.132;-1.586;2024-02-15T07:19:27;99938.22;;;15.54;100.00
71165;BME280;58859;55.132;-1.586;2024-02-15T07:21:52;99944.47;;;15.46;100.00
71165;BME280;58859;55.132;-1.586;2024-02-15T07:24:18;99938.69;;;15.90;100.00
71165;BME280;58859;55.132;-1.586;2024-02-15T07:26:44;99947.00;;;15.33;100.00
71165;BME280;58859;55.132;-1.586;2024-02-15T07:29:10;99952.84;;;15.35;100.00
71165;BME280;58859;55.132;-1.586;2024-02-15T07:31:36;99953.53;;;15.50;100.00
71165;BME280;58859;55.132;-1.586;2024-02-15T07:34:02;99951.94;;;15.09;100.00
71165;BME280;58859;55.132;-1.586;2024-02-15T07:36:28;99960.41;;;15.11;100.00
71165;BME280;58859;55.132;-1.586;2024-02-15T07:38:54;99959.72;;;15.36;100.00
71165;BME280;58859;55.132;-1.586;2024-02-15T07:41:23;99958.66;;;15.72;100.00
71165;BME280;58859;55.132;-1.586;2024-02-15T07:43:49;99957.56;;;15.53;100.00
71165;BME280;58859;55.132;-1.586;2024-02-15T07:46:16;99960.22;;;15.60;100.00
71165;BME280;58859;55.132;-1.586;2024-02-15T07:48:44;99958.31;;;15.40;100.00
71165;BME280;58859;55.132;-1.586;2024-02-15T07:51:16;99952.13;;;15.48;100.00
71165;BME280;58859;55.132;-1.586;2024-02-15T07:53:43;99957.91;;;15.37;100.00
71165;BME280;58859;55.132;-1.586;2024-02-15T07:56:10;99950.06;;;15.43;100.00
71165;BME280;58859;55.132;-1.586;2024-02-15T07:58:39;99956.28;;;15.36;100.00
71165;BME280;58859;55.132;-1.586;2024-02-15T08:01:07;99948.03;;;15.32;100.00
71165;BME280;58859;55.132;-1.586;2024-02-15T08:03:33;99940.34;;;15.31;100.00
71165;BME280;58859;55.132;-1.586;2024-02-15T08:06:00;99935.41;;;15.56;100.00
71165;BME280;58859;55.132;-1.586;2024-02-15T08:08:26;99931.59;;;15.65;100.00
71165;BME280;58859;55.132;-1.586;2024-02-15T08:10:51;99935.69;;;15.33;100.00
71165;BME280;58859;55.132;-1.586;2024-02-15T08:13:17;99932.28;;;15.39;100.00
71165;BME280;58859;55.132;-1.586;2024-02-15T08:15:43;99937.66;;;15.11;100.00
71165;BME280;58859;55.132;-1.586;2024-02-15T08:18:09;99936.41;;;15.55;100.00
71165;BME280;58859;55.132;-1.586;2024-02-15T08:20:38;99935.78;;;15.52;100.00
71165;BME280;58859;55.132;-1.586;2024-02-15T08:23:05;99931.41;;;15.19;100.00
71165;BME280;58859;55.132;-1.586;2024-02-15T08:25:31;99940.84;;;15.54;100.00
71165;BME280;58859;55.132;-1.586;2024-02-15T08:27:56;99937.50;;;15.26;100.00
71165;BME280;58859;55.132;-1.586;2024-02-15T08:30:22;99931.09;;;15.41;100.00
71165;BME280;58859;55.132;-1.586;2024-02-15T08:32:47;99931.16;;;15.07;100.00
71165;BME280;58859;55.132;-1.586;2024-02-15T08:35:13;99928.41;;;15.15;100.00
71165;BME280;58859;55.132;-1.586;2024-02-15T08:37:40;99927.81;;;15.20;100.00
71165;BME280;58859;55.132;-1.586;2024-02-15T08:40:08;99931.19;;;15.14;100.00
71165;BME280;58859;55.132;-1.586;2024-02-15T08:42:41;99921.47;;;15.48;100.00
71165;BME280;58859;55.132;-1.586;2024-02-15T08:45:08;99925.47;;;15.38;100.00
71165;BME280;58859;55.132;-1.586;2024-02-15T08:47:36;99926.75;;;15.68;100.00
71165;BME280;58859;55.132;-1.586;2024-02-15T08:50:03;99918.06;;;15.55;100.00
71165;BME280;58859;55.132;-1.586;2024-02-15T08:52:28;99910.59;;;15.51;100.00
71165;BME280;58859;55.132;-1.586;2024-02-15T08:54:54;99914.34;;;15.36;100.00
71165;BME280;58859;55.132;-1.586;2024-02-15T08:57:20;99920.69;;;15.61;100.00
71165;BME280;58859;55.132;-1.586;2024-02-15T08:59:47;99898.56;;;15.96;100.00
71165;BME280;58859;55.132;-1.586;2024-02-15T09:02:12;99897.34;;;15.66;100.00
71165;BME280;58859;55.132;-1.586;2024-02-15T09:04:39;99896.72;;;15.84;100.00
71165;BME280;58859;55.132;-1.586;2024-02-15T09:07:06;99899.53;;;15.63;100.00
71165;BME280;58859;55.132;-1.586;2024-02-15T09:09:32;99902.75;;;15.51;100.00
71165;BME280;58859;55.132;-1.586;2024-02-15T09:12:01;99911.41;;;15.52;100.00
71165;BME280;58859;55.132;-1.586;2024-02-15T09:14:33;99894.69;;;15.46;100.00
71165;BME280;58859;55.132;-1.586;2024-02-15T09:17:00;99883.00;;;15.75;100.00
71165;BME280;58859;55.132;-1.586;2024-02-15T09:19:25;99880.38;;;15.62;100.00
71165;BME280;58859;55.132;-1.586;2024-02-15T09:21:51;99875.34;;;15.80;100.00
71165;BME280;58859;55.132;-1.586;2024-02-15T09:24:16;99879.19;;;16.04;100.00
71165;BME280;58859;55.132;-1.586;2024-02-15T09:26:42;99876.38;;;15.86;100.00
71165;BME280;58859;55.132;-1.586;2024-02-15T09:29:09;99864.25;;;16.04;100.00
71165;BME280;58859;55.132;-1.586;2024-02-15T09:31:35;99870.69;;;16.22;100.00
71165;BME280;58859;55.132;-1.586;2024-02-15T09:34:01;99864.03;;;15.67;100.00
71165;BME280;58859;55.132;-1.586;2024-02-15T09:36:34;99842.25;;;15.99;100.00
71165;BME280;58859;55.132;-1.586;2024-02-15T09:38:59;99853.75;;;15.59;100.00
71165;BME280;58859;55.132;-1.586;2024-02-15T09:41:25;99857.78;;;15.68;100.00
71165;BME280;58859;55.132;-1.586;2024-02-15T09:43:50;99868.28;;;16.14;100.00
71165;BME280;58859;55.132;-1.586;2024-02-15T09:46:17;99864.00;;;15.40;100.00
71165;BME280;58859;55.132;-1.586;2024-02-15T09:48:46;99862.13;;;15.28;100.00
71165;BME280;58859;55.132;-1.586;2024-02-15T09:51:16;99871.72;;;15.68;100.00
71165;BME280;58859;55.132;-1.586;2024-02-15T09:53:44;99861.84;;;15.83;100.00
71165;BME280;58859;55.132;-1.586;2024-02-15T09:56:10;99845.78;;;15.19;100.00
71165;BME280;58859;55.132;-1.586;2024-02-15T09:58:37;99843.88;;;15.67;100.00
71165;BME280;58859;55.132;-1.586;2024-02-15T10:01:04;99842.41;;;15.38;100.00
71165;BME280;58859;55.132;-1.586;2024-02-15T10:03:38;99837.41;;;15.70;100.00
71165;BME280;58859;55.132;-1.586;2024-02-15T10:06:07;99837.66;;;15.75;100.00
71165;BME280;58859;55.132;-1.586;2024-02-15T10:08:32;99835.81;;;15.75;100.00
71165;BME280;58859;55.132;-1.586;2024-02-15T10:11:07;99829.97;;;15.73;100.00
71165;BME280;58859;55.132;-1.586;2024-02-15T10:13:34;99838.66;;;15.80;100.00
71165;BME280;58859;55.132;-1.586;2024-02-15T10:16:14;99828.97;;;15.74;100.00
71165;BME280;58859;55.132;-1.586;2024-02-15T10:18:40;99846.31;;;15.95;100.00
71165;BME280;58859;55.132;-1.586;2024-02-15T10:21:05;99840.44;;;15.93;100.00
71165;BME280;58859;55.132;-1.586;2024-02-15T10:23:31;99840.03;;;16.29;100.00
71165;BME280;58859;55.132;-1.586;2024-02-15T10:25:56;99835.13;;;16.32;100.00
71165;BME280;58859;55.132;-1.586;2024-02-15T10:28:24;99833.41;;;16.00;100.00
71165;BME280;58859;55.132;-1.586;2024-02-15T10:30:50;99835.53;;;16.55;100.00
71165;BME280;58859;55.132;-1.586;2024-02-15T10:33:19;99825.78;;;16.69;100.00
71165;BME280;58859;55.132;-1.586;2024-02-15T10:35:45;99828.72;;;16.15;100.00
71165;BME280;58859;55.132;-1.586;2024-02-15T10:38:12;99822.91;;;15.93;100.00
71165;BME280;58859;55.132;-1.586;2024-02-15T10:40:39;99818.47;;;15.87;100.00
71165;BME280;58859;55.132;-1.586;2024-02-15T10:43:08;99819.66;;;16.18;100.00
71165;BME280;58859;55.132;-1.586;2024-02-15T10:45:36;99817.84;;;16.05;100.00
71165;BME280;58859;55.132;-1.586;2024-02-15T10:48:03;99803.81;;;16.50;100.00
71165;BME280;58859;55.132;-1.586;2024-02-15T10:50:30;99819.69;;;15.91;100.00
71165;BME280;58859;55.132;-1.586;2024-02-15T10:52:59;99809.75;;;16.06;100.00
71165;BME280;58859;55.132;-1.586;2024-02-15T10:55:40;99803.72;;;15.93;100.00
71165;BME280;58859;55.132;-1.586;2024-02-15T10:58:06;99802.13;;;15.85;100.00
71165;BME280;58859;55.132;-1.586;2024-02-15T11:00:34;99802.13;;;15.92;100.00
71165;BME280;58859;55.132;-1.586;2024-02-15T11:03:04;99795.25;;;16.10;100.00
71165;BME280;58859;55.132;-1.586;2024-02-15T11:05:36;99796.28;;;15.90;100.00
71165;BME280;58859;55.132;-1.586;2024-02-15T11:08:06;99787.63;;;15.76;100.00
71165;BME280;58859;55.132;-1.586;2024-02-15T11:10:34;99782.47;;;16.27;100.00
71165;BME280;58859;55.132;-1.586;2024-02-15T11:13:01;99783.94;;;16.10;100.00
71165;BME280;58859;55.132;-1.586;2024-02-15T11:15:44;99788.22;;;15.85;100.00
71165;BME280;58859;55.132;-1.586;2024-02-15T11:18:45;99776.47;;;16.14;100.00
71165;BME280;58859;55.132;-1.586;2024-02-15T11:21:11;99758.56;;;15.65;100.00
71165;BME280;58859;55.132;-1.586;2024-02-15T11:23:37;99770.88;;;15.77;100.00
71165;BME280;58859;55.132;-1.586;2024-02-15T11:26:04;99781.34;;;15.97;100.00
71165;BME280;58859;55.132;-1.586;2024-02-15T11:30:56;99771.25;;;15.87;100.00
71165;BME280;58859;55.132;-1.586;2024-02-15T11:33:34;99761.97;;;15.98;100.00
71165;BME280;58859;55.132;-1.586;2024-02-15T11:36:11;99773.44;;;16.03;100.00
71165;BME280;58859;55.132;-1.586;2024-02-15T11:38:38;99762.72;;;16.18;100.00
71165;BME280;58859;55.132;-1.586;2024-02-15T11:41:09;99761.38;;;15.96;100.00
71165;BME280;58859;55.132;-1.586;2024-02-15T11:43:51;99764.59;;;16.69;100.00
71165;BME280;58859;55.132;-1.586;2024-02-15T11:46:27;99765.16;;;16.20;100.00
71165;BME280;58859;55.132;-1.586;2024-02-15T11:48:57;99748.28;;;16.47;100.00
71165;BME280;58859;55.132;-1.586;2024-02-15T11:51:34;99743.97;;;16.72;100.00
71165;BME280;58859;55.132;-1.586;2024-02-15T11:54:09;99741.16;;;16.67;100.00
71165;BME280;58859;55.132;-1.586;2024-02-15T11:59:09;99725.66;;;16.52;100.00
71165;BME280;58859;55.132;-1.586;2024-02-15T12:01:44;99742.50;;;16.32;100.00
71165;BME280;58859;55.132;-1.586;2024-02-15T12:04:27;99728.72;;;16.87;100.00
71165;BME280;58859;55.132;-1.586;2024-02-15T12:07:13;99733.66;;;16.77;100.00
71165;BME280;58859;55.132;-1.586;2024-02-15T12:10:00;99729.50;;;16.50;100.00
71165;BME280;58859;55.132;-1.586;2024-02-15T12:12:51;99721.53;;;16.76;100.00
71165;BME280;58859;55.132;-1.586;2024-02-15T12:15:35;99719.81;;;16.57;100.00
71165;BME280;58859;55.132;-1.586;2024-02-15T12:18:19;99729.75;;;16.35;100.00
71165;BME280;58859;55.132;-1.586;2024-02-15T12:21:04;99722.22;;;16.58;100.00
71165;BME280;58859;55.132;-1.586;2024-02-15T12:23:31;99721.88;;;16.42;100.00
71165;BME280;58859;55.132;-1.586;2024-02-15T12:26:00;99711.63;;;16.72;100.00
71165;BME280;58859;55.132;-1.586;2024-02-15T12:28:26;99705.44;;;17.22;100.00
71165;BME280;58859;55.132;-1.586;2024-02-15T12:30:55;99707.59;;;16.76;100.00
71165;BME280;58859;55.132;-1.586;2024-02-15T12:33:24;99701.75;;;16.74;100.00
71165;BME280;58859;55.132;-1.586;2024-02-15T12:35:50;99699.88;;;17.37;100.00
71165;BME280;58859;55.132;-1.586;2024-02-15T12:38:16;99699.50;;;16.77;100.00
71165;BME280;58859;55.132;-1.586;2024-02-15T12:40:42;99701.25;;;17.14;100.00
71165;BME280;58859;55.132;-1.586;2024-02-15T12:43:09;99703.25;;;16.56;100.00
71165;BME280;58859;55.132;-1.586;2024-02-15T12:45:39;99686.84;;;16.61;100.00